createdAt,value
2023-01-19T00:03:56.726Z,10.40
2023-01-19T00:08:58.945Z,8.40
2023-01-19T00:14:01.135Z,9.48
2023-01-19T00:19:03.049Z,13.77
2023-01-19T00:24:05.269Z,11.48
2023-01-19T00:29:10.329Z,11.27
2023-01-19T00:34:12.494Z,7.88
2023-01-19T00:39:14.307Z,7.38
2023-01-19T00:44:16.525Z,7.65
2023-01-19T00:49:18.835Z,8.20
2023-01-19T00:54:21.049Z,7.93
2023-01-19T00:59:23.182Z,7.82
2023-01-19T01:04:25.378Z,8.07
2023-01-19T01:09:27.654Z,7.80
2023-01-19T01:14:29.904Z,9.07
2023-01-19T01:19:32.249Z,9.38
2023-01-19T01:24:34.013Z,10.50
2023-01-19T01:29:35.792Z,9.20
2023-01-19T01:34:37.508Z,9.00
2023-01-19T01:39:39.719Z,7.63
2023-01-19T01:44:50.733Z,7.80
2023-01-19T01:50:04.329Z,7.47
2023-01-19T01:55:07.391Z,6.47
2023-01-19T02:00:12.107Z,7.82
2023-01-19T02:05:27.621Z,6.95
2023-01-19T02:10:48.412Z,7.22
2023-01-19T02:15:55.636Z,5.90
2023-01-19T02:21:19.137Z,6.75
2023-01-19T02:26:24.369Z,6.10
2023-01-19T02:31:28.504Z,6.20
2023-01-19T02:36:45.583Z,6.65
2023-01-19T02:41:52.648Z,6.55
2023-01-19T02:46:55.042Z,5.57
2023-01-19T02:51:58.017Z,6.85
2023-01-19T02:57:27.879Z,10.52
2023-01-19T03:02:56.024Z,9.02
2023-01-19T03:08:09.432Z,7.90
2023-01-19T03:13:31.077Z,8.70
2023-01-19T03:18:35.619Z,7.10
2023-01-19T03:23:41.841Z,8.00
2023-01-19T03:28:45.393Z,7.75
2023-01-19T03:34:09.145Z,6.78
2023-01-19T03:39:12.661Z,7.20
2023-01-19T03:44:14.685Z,8.52
2023-01-19T03:49:17.127Z,9.73
2023-01-19T03:54:19.277Z,9.63
2023-01-19T03:59:21.913Z,10.10
2023-01-19T04:04:25.586Z,10.13
2023-01-19T04:09:27.527Z,11.27
2023-01-19T04:14:29.660Z,12.45
2023-01-19T04:19:31.843Z,8.57
2023-01-19T04:24:33.949Z,9.60
2023-01-19T04:29:36.130Z,5.47
2023-01-19T04:34:38.253Z,6.47
2023-01-19T04:39:40.464Z,6.65
2023-01-19T04:44:42.652Z,5.32
2023-01-19T04:49:44.808Z,7.18
2023-01-19T04:54:46.567Z,6.97
2023-01-19T04:59:48.677Z,9.15
2023-01-19T05:04:51.021Z,8.32
2023-01-19T05:09:53.856Z,8.60
2023-01-19T05:14:56.059Z,8.38
2023-01-19T05:19:57.795Z,6.45
2023-01-19T05:24:59.601Z,6.35
2023-01-19T05:30:01.782Z,6.50
2023-01-19T05:35:04.123Z,6.90
2023-01-19T05:40:06.993Z,6.90
2023-01-19T05:45:09.269Z,7.22
2023-01-19T05:50:11.223Z,7.05
2023-01-19T05:55:15.531Z,7.65
2023-01-19T06:00:17.706Z,7.72
2023-01-19T06:05:19.636Z,8.45
2023-01-19T06:10:21.814Z,8.95
2023-01-19T06:15:23.953Z,9.13
2023-01-19T06:20:26.257Z,9.32
2023-01-19T06:25:28.575Z,9.55
2023-01-19T06:30:30.844Z,9.23
2023-01-19T06:35:33.059Z,9.50
2023-01-19T06:40:35.182Z,7.65
2023-01-19T06:45:38.613Z,6.75
2023-01-19T06:50:40.880Z,7.40
2023-01-19T06:55:45.984Z,11.48
2023-01-19T07:00:49.055Z,12.73
2023-01-19T07:05:54.103Z,13.27
2023-01-19T07:11:25.188Z,12.43
2023-01-19T07:16:23.671Z,11.50
2023-01-19T07:21:26.416Z,10.45
2023-01-19T07:26:30.913Z,21.02
2023-01-19T07:31:32.734Z,8.70
2023-01-19T07:36:36.033Z,8.20
2023-01-19T07:41:37.881Z,9.23
2023-01-19T07:46:39.900Z,8.10
2023-01-19T07:51:41.701Z,9.15
2023-01-19T07:56:43.598Z,9.88
2023-01-19T08:01:45.920Z,9.27
2023-01-19T08:06:48.350Z,8.50
2023-01-19T08:11:50.476Z,7.55
2023-01-19T08:16:52.775Z,14.73
2023-01-19T08:21:55.266Z,10.95
2023-01-19T08:27:01.854Z,9.20
2023-01-19T08:32:04.936Z,9.48
2023-01-19T08:37:06.743Z,15.77
2023-01-19T08:42:08.502Z,14.30
2023-01-19T08:47:11.682Z,12.80
2023-01-19T08:52:13.521Z,11.88
2023-01-19T08:57:16.254Z,13.38
2023-01-19T09:02:18.109Z,14.85
2023-01-19T09:07:20.391Z,14.23
2023-01-19T09:12:22.268Z,19.80
2023-01-19T09:17:24.173Z,19.80
2023-01-19T09:22:25.970Z,14.07
2023-01-19T09:27:28.184Z,13.70
2023-01-19T09:32:30.403Z,11.57
2023-01-19T09:37:32.241Z,6.70
2023-01-19T09:42:45.077Z,5.93
2023-01-19T09:47:48.658Z,5.30
2023-01-19T09:53:15.543Z,5.93
2023-01-19T09:58:19.226Z,6.43
2023-01-19T10:03:21.774Z,6.35
2023-01-19T10:08:45.136Z,6.57
2023-01-19T10:13:52.253Z,5.38
2023-01-19T10:18:59.572Z,5.20
2023-01-19T10:24:29.279Z,5.05
2023-01-19T10:29:37.584Z,5.22
2023-01-19T10:34:40.258Z,5.82
2023-01-19T10:39:42.940Z,5.90
2023-01-19T10:44:46.011Z,4.55
2023-01-19T10:49:49.089Z,5.47
2023-01-19T10:54:51.099Z,5.70
2023-01-19T10:59:52.962Z,4.95
2023-01-19T11:05:00.632Z,5.38
2023-01-19T11:10:29.946Z,5.22
2023-01-19T11:15:42.301Z,4.38
2023-01-19T11:20:52.701Z,5.65
2023-01-19T11:25:58.169Z,4.60
2023-01-19T11:31:15.395Z,5.80
2023-01-19T11:36:23.715Z,5.43
2023-01-19T11:41:29.924Z,4.90
2023-01-19T11:46:34.740Z,5.45
2023-01-19T11:52:06.553Z,4.10
2023-01-19T11:57:15.051Z,4.22
2023-01-19T12:02:30.465Z,4.15
2023-01-19T12:07:35.183Z,4.20
2023-01-19T12:12:40.488Z,4.28
2023-01-19T12:17:48.804Z,5.30
2023-01-19T12:23:21.168Z,6.25
2023-01-19T12:28:32.876Z,8.38
2023-01-19T12:33:39.517Z,7.68
2023-01-19T12:38:56.399Z,4.82
2023-01-19T12:44:16.500Z,4.32
2023-01-19T12:49:33.999Z,4.25
2023-01-19T12:54:36.278Z,4.50
2023-01-19T12:59:39.820Z,4.18
2023-01-19T13:04:41.981Z,4.30
2023-01-19T13:09:43.831Z,7.03
2023-01-19T13:14:46.363Z,7.32
2023-01-19T13:20:17.168Z,4.95
2023-01-19T13:25:37.773Z,5.30
2023-01-19T13:30:51.030Z,6.05
2023-01-19T13:35:56.452Z,8.00
2023-01-19T13:41:01.933Z,9.20
2023-01-19T13:46:04.308Z,26.15
2023-01-19T13:51:18.717Z,7.30
2023-01-19T13:56:23.243Z,5.35
2023-01-19T14:01:28.884Z,5.30
2023-01-19T14:06:35.958Z,5.57
2023-01-19T14:11:38.036Z,5.35
2023-01-19T14:16:40.206Z,4.97
2023-01-19T14:21:42.354Z,4.60
2023-01-19T14:26:48.859Z,4.57
2023-01-19T14:31:51.594Z,4.57
2023-01-19T14:36:53.793Z,4.50
2023-01-19T14:41:58.995Z,4.72
2023-01-19T14:47:03.153Z,6.82
2023-01-19T14:52:21.544Z,12.50
2023-01-19T14:57:23.961Z,6.85
2023-01-19T15:02:26.142Z,11.75
2023-01-19T15:07:28.733Z,11.02
2023-01-19T15:12:30.909Z,6.82
2023-01-19T15:17:33.989Z,8.60
2023-01-19T15:22:36.157Z,5.70
2023-01-19T15:27:37.879Z,6.80
2023-01-19T15:32:43.753Z,5.78
2023-01-19T15:37:46.389Z,5.75
2023-01-19T15:42:48.192Z,5.20
2023-01-19T15:47:49.898Z,5.70
2023-01-19T15:52:51.775Z,9.02
2023-01-19T15:57:53.943Z,6.97
2023-01-19T16:02:56.290Z,6.72
2023-01-19T16:08:00.585Z,6.68
2023-01-19T16:13:04.356Z,9.13
2023-01-19T16:18:06.623Z,10.05
2023-01-19T16:23:14.853Z,6.53
2023-01-19T16:28:17.420Z,5.20
2023-01-19T16:33:19.844Z,5.25
2023-01-19T16:38:24.608Z,4.47
2023-01-19T16:43:28.291Z,6.70
2023-01-19T16:48:32.906Z,6.43
2023-01-19T16:53:35.518Z,8.55
2023-01-19T16:58:38.496Z,7.13
2023-01-19T17:03:40.834Z,9.85
2023-01-19T17:08:43.022Z,9.38
2023-01-19T17:13:45.143Z,8.95
2023-01-19T17:18:47.364Z,8.70
2023-01-19T17:23:51.858Z,8.18
2023-01-19T17:29:05.384Z,7.22
2023-01-19T17:34:08.744Z,10.77
2023-01-19T17:39:14.821Z,10.63
2023-01-19T17:44:17.182Z,9.63
2023-01-19T17:49:19.093Z,8.07
2023-01-19T17:54:21.331Z,23.83
2023-01-19T17:59:23.483Z,17.65
2023-01-19T18:04:25.642Z,15.93
2023-01-19T18:09:27.854Z,17.98
2023-01-19T18:14:30.050Z,15.82
2023-01-19T18:19:31.938Z,20.00
2023-01-19T18:24:34.152Z,22.15
2023-01-19T18:29:35.931Z,22.75
2023-01-19T18:34:37.926Z,42.85
2023-01-19T18:39:40.102Z,22.13
2023-01-19T18:44:42.304Z,16.48
2023-01-19T18:49:44.422Z,18.35
2023-01-19T18:54:48.267Z,19.05
2023-01-19T18:59:50.486Z,15.80
2023-01-19T19:04:52.658Z,11.27
2023-01-19T19:09:54.488Z,18.65
2023-01-19T19:14:56.695Z,15.95
2023-01-19T19:19:58.799Z,8.90
2023-01-19T19:25:00.981Z,8.05
2023-01-19T19:30:03.345Z,12.05
2023-01-19T19:35:05.547Z,18.80
2023-01-19T19:40:08.023Z,17.73
2023-01-19T19:45:10.512Z,16.77
2023-01-19T19:50:12.916Z,17.15
2023-01-19T20:01:47.258Z,16.75
2023-01-19T20:06:49.902Z,19.10
2023-01-19T20:11:52.307Z,17.10
2023-01-19T20:16:54.537Z,15.73
2023-01-19T20:21:56.711Z,16.88
2023-01-19T20:26:58.867Z,15.38
2023-01-19T20:32:01.146Z,20.20
2023-01-19T20:37:04.692Z,19.00
2023-01-19T20:42:11.007Z,18.95
2023-01-19T20:47:13.257Z,20.90
2023-01-19T20:52:15.498Z,18.50
2023-01-19T20:57:17.678Z,20.35
2023-01-19T21:02:20.473Z,18.00
2023-01-19T21:07:22.256Z,19.48
2023-01-19T21:12:24.524Z,20.40
2023-01-19T21:17:26.730Z,20.98
2023-01-19T21:22:28.911Z,22.77
2023-01-19T21:27:31.015Z,20.05
2023-01-19T21:32:32.851Z,20.40
2023-01-19T21:37:35.014Z,20.52
2023-01-19T21:42:37.274Z,21.02
2023-01-19T21:47:39.478Z,16.40
2023-01-19T21:52:41.711Z,15.18
2023-01-19T21:57:43.965Z,16.05
2023-01-19T22:02:58.606Z,15.15
2023-01-19T22:08:06.308Z,15.65
2023-01-19T22:13:09.482Z,14.82
2023-01-19T22:18:11.696Z,17.67
2023-01-19T22:23:13.962Z,15.48
2023-01-19T22:28:16.175Z,17.25
2023-01-19T22:33:18.389Z,11.25
2023-01-19T22:38:22.914Z,13.13
2023-01-19T22:43:25.161Z,11.90
2023-01-19T22:48:28.162Z,10.20
2023-01-19T22:53:32.822Z,9.40
2023-01-19T22:58:34.935Z,8.10
2023-01-19T23:03:37.609Z,7.65
2023-01-19T23:08:39.867Z,8.50
2023-01-19T23:13:42.209Z,7.50
2023-01-19T23:18:45.030Z,8.52
2023-01-19T23:23:47.478Z,9.02
2023-01-19T23:28:56.959Z,9.40
2023-01-19T23:34:05.063Z,8.63
2023-01-19T23:39:15.925Z,9.18
2023-01-19T23:44:18.146Z,8.60
2023-01-19T23:49:20.409Z,12.23
2023-01-19T23:54:22.690Z,10.75
2023-01-19T23:59:24.940Z,10.88
